Time;durP1;ratioP1;P1;durP2;ratioP2;P2;SDS_P1;SDS_P2;PMS_P1;PMS_P2;Temp;Humidity;BMP_temperature;BMP_pressure;BME280_temperature;BME280_humidity;BME280_pressure;Samples;Min_cycle;Max_cycle;Signal;HPM_P1;HPM_P2
2023/01/16 00:02:17;;;;;;;27.42;18.58;;;;;;;5.93;100.00;100521.69;5033182;28;20739;-77
2023/01/16 00:04:42;;;;;;;29.23;20.67;;;;;;;5.63;100.00;100440.97;5033550;28;20065;-77
2023/01/16 00:07:08;;;;;;;31.90;21.58;;;;;;;6.08;100.00;100517.47;5033101;28;20038;-77
2023/01/16 00:09:33;;;;;;;35.13;23.42;;;;;;;5.87;100.00;100468.72;5033023;28;20128;-77
2023/01/16 00:11:58;;;;;;;36.47;24.70;;;;;;;6.15;100.00;100510.75;5032290;28;20099;-77
2023/01/16 00:14:24;;;;;;;36.65;24.83;;;;;;;6.12;100.00;100524.19;5036767;28;20487;-78
2023/01/16 00:16:49;;;;;;;36.28;25.60;;;;;;;5.88;100.00;100467.91;5050668;28;20075;-77
2023/01/16 00:19:15;;;;;;;40.35;28.15;;;;;;;6.19;100.00;100517.47;5051165;28;20423;-77
2023/01/16 00:21:40;;;;;;;39.22;28.73;;;;;;;5.93;100.00;100466.19;5052410;28;20072;-77
2023/01/16 00:24:06;;;;;;;42.53;29.58;;;;;;;5.93;100.00;100451.91;5053177;28;20070;-77
2023/01/16 00:26:32;;;;;;;44.67;30.85;;;;;;;6.09;100.00;100524.22;5052760;28;20515;-77
2023/01/16 00:28:58;;;;;;;42.35;28.77;;;;;;;6.11;100.00;100509.06;5052939;28;20029;-78
2023/01/16 00:31:25;;;;;;;46.78;32.25;;;;;;;5.75;100.00;100458.59;5052377;28;20491;-77
2023/01/16 00:33:50;;;;;;;42.05;29.75;;;;;;;5.75;100.00;100431.72;5052698;28;20033;-77
2023/01/16 00:36:16;;;;;;;35.17;26.23;;;;;;;6.23;100.00;100518.28;5050911;28;20345;-79
2023/01/16 00:38:41;;;;;;;33.03;24.35;;;;;;;6.14;100.00;100512.41;5051481;28;20029;-79
2023/01/16 00:41:07;;;;;;;30.80;22.40;;;;;;;5.72;100.00;100430.88;5052487;28;20025;-78
2023/01/16 00:43:33;;;;;;;33.45;23.15;;;;;;;5.55;100.00;100419.94;5052583;28;20056;-78
2023/01/16 00:45:58;;;;;;;32.60;22.92;;;;;;;5.88;100.00;100504.03;5052856;28;20104;-77
2023/01/16 00:48:24;;;;;;;31.55;22.88;;;;;;;5.93;100.00;100526.75;5053509;28;20044;-77
2023/01/16 00:50:50;;;;;;;31.60;22.00;;;;;;;5.61;100.00;100455.25;5052510;28;20036;-78
2023/01/16 00:53:16;;;;;;;32.47;22.50;;;;;;;5.51;100.00;100441.81;5052264;28;20025;-77
2023/01/16 00:55:41;;;;;;;30.45;22.23;;;;;;;5.86;100.00;100499.84;5051889;28;20032;-77
2023/01/16 00:58:10;;;;;;;31.35;21.88;;;;;;;5.54;100.00;100449.38;5050819;28;20498;-76
2023/01/16 01:00:36;;;;;;;30.50;22.25;;;;;;;5.84;100.00;100517.47;5050695;28;20032;-77
2023/01/16 01:03:03;;;;;;;30.10;22.15;;;;;;;5.69;100.00;100487.19;5052240;28;20128;-76
2023/01/16 01:05:29;;;;;;;29.92;22.00;;;;;;;5.50;100.00;100424.16;5052246;28;20032;-75
2023/01/16 01:07:54;;;;;;;32.60;22.42;;;;;;;5.23;100.00;100422.47;5052016;28;20052;-76
2023/01/16 01:10:20;;;;;;;32.70;23.27;;;;;;;5.58;100.00;100438.47;5051980;28;20131;-76
2023/01/16 01:12:45;;;;;;;31.95;23.17;;;;;;;5.88;100.00;100473.75;5051674;28;20420;-76
2023/01/16 01:15:11;;;;;;;32.90;23.05;;;;;;;5.46;100.00;100432.56;5051440;28;20078;-76
2023/01/16 01:17:36;;;;;;;30.52;22.65;;;;;;;5.69;100.00;100492.25;5051737;28;20028;-76
2023/01/16 01:20:07;;;;;;;31.90;23.80;;;;;;;5.94;100.00;100498.16;5051851;28;20033;-77
2023/01/16 01:22:33;;;;;;;34.38;23.50;;;;;;;5.16;100.00;100363.69;5051969;28;20094;-75
2023/01/16 01:24:59;;;;;;;34.38;23.70;;;;;;;5.51;100.00;100421.63;5050691;28;20482;-77
2023/01/16 01:27:24;;;;;;;32.75;23.90;;;;;;;5.87;100.00;100484.72;5050686;28;20542;-77
2023/01/16 01:29:49;;;;;;;32.25;23.92;;;;;;;6.06;100.00;100486.34;5050779;28;20039;-78
2023/01/16 01:32:15;;;;;;;32.70;24.30;;;;;;;5.63;100.00;100454.41;5052252;28;20086;-79
2023/01/16 01:34:40;;;;;;;33.95;22.85;;;;;;;5.73;100.00;100480.47;5051674;28;20029;-78
2023/01/16 01:37:07;;;;;;;34.75;24.00;;;;;;;5.55;100.00;100418.28;5051818;28;20052;-77
2023/01/16 01:39:33;;;;;;;32.67;23.90;;;;;;;6.06;100.00;100488.06;5051933;28;20075;-76
2023/01/16 01:45:26;;;;;;;33.55;23.80;;;;;;;5.99;100.00;100476.28;5051628;28;20141;-77
2023/01/16 01:47:56;;;;;;;33.92;23.60;;;;;;;5.90;100.00;100459.47;4993669;28;20133;-78
2023/01/16 01:50:31;;;;;;;34.15;23.38;;;;;;;6.12;100.00;100455.22;5051123;28;20037;-78
2023/01/16 01:52:59;;;;;;;34.83;23.77;;;;;;;5.92;100.00;100456.97;5056280;28;20057;-77
2023/01/16 01:55:25;;;;;;;34.03;23.42;;;;;;;5.35;100.00;100318.31;5055088;28;20273;-77
2023/01/16 01:57:59;;;;;;;36.00;23.05;;;;;;;5.74;100.00;100384.66;5056497;28;20450;-76
2023/01/16 02:00:27;;;;;;;35.20;24.02;;;;;;;6.05;100.00;100451.03;5055234;28;20048;-76
2023/01/16 02:03:02;;;;;;;34.13;24.25;;;;;;;5.71;100.00;100384.63;5053966;28;20056;-75
2023/01/16 02:05:37;;;;;;;35.63;25.25;;;;;;;6.05;100.00;100443.47;5055503;28;20104;-76
2023/01/16 02:08:04;;;;;;;36.10;25.73;;;;;;;6.11;100.00;100446.81;5053571;28;20498;-76
2023/01/16 02:10:58;;;;;;;33.50;24.20;;;;;;;5.89;100.00;100446.84;5055230;28;20029;-76
2023/01/16 02:13:24;;;;;;;38.20;25.98;;;;;;;5.92;100.00;100441.81;5035695;28;20033;-76
2023/01/16 02:21:58;;;;;;;38.13;25.83;;;;;;;5.55;100.00;100380.47;5055229;28;20086;-76
2023/01/16 02:24:29;;;;;;;35.95;24.17;;;;;;;5.93;100.00;100430.88;5055382;28;20025;-76
2023/01/16 02:27:19;;;;;;;37.88;25.45;;;;;;;5.86;100.00;100431.75;5053702;28;20027;-76
2023/01/16 02:29:45;;;;;;;35.28;24.33;;;;;;;5.92;100.00;100437.59;5054697;28;20060;-76
2023/01/16 02:32:32;;;;;;;36.75;24.17;;;;;;;5.83;100.00;100419.97;5054920;28;20475;-76
2023/01/16 02:35:16;;;;;;;35.22;24.15;;;;;;;5.85;100.00;100423.31;5055659;28;20021;-77
2023/01/16 02:37:44;;;;;;;34.33;24.15;;;;;;;5.83;100.00;100429.16;5053744;28;20033;-76
2023/01/16 02:40:25;;;;;;;35.17;24.00;;;;;;;5.42;100.00;100350.22;5043069;28;20030;-76
2023/01/16 02:43:07;;;;;;;35.08;24.25;;;;;;;5.69;100.00;100418.25;5034972;28;20041;-76
2023/01/16 02:46:01;;;;;;;31.52;23.20;;;;;;;5.74;100.00;100414.91;5035039;28;20026;-77
2023/01/16 02:48:38;;;;;;;39.83;26.27;;;;;;;5.71;100.00;100422.47;5035534;28;20090;-77
2023/01/16 02:51:27;;;;;;;39.35;26.63;;;;;;;5.80;100.00;100416.56;5034864;28;20044;-77
2023/01/16 02:54:14;;;;;;;36.20;25.10;;;;;;;5.81;100.00;100440.94;5033055;28;20044;-78
2023/01/16 02:56:45;;;;;;;39.60;27.48;;;;;;;5.45;100.00;100338.44;5034698;28;20030;-78
2023/01/16 02:59:12;;;;;;;40.50;26.27;;;;;;;5.80;100.00;100414.88;5034417;28;20037;-76
2023/01/16 03:01:40;;;;;;;41.30;28.15;;;;;;;5.42;100.00;100341.00;5039527;28;20072;-77
2023/01/16 03:04:43;;;;;;;45.33;31.75;;;;;;;5.76;100.00;100414.91;5054314;28;20057;-78
2023/01/16 03:07:43;;;;;;;50.38;34.20;;;;;;;5.09;100.00;100281.38;5053085;28;20128;-76
2023/01/16 03:10:30;;;;;;;51.67;36.35;;;;;;;5.76;100.00;100417.44;5053449;28;20506;-76
2023/01/16 03:13:40;;;;;;;49.05;33.22;;;;;;;5.26;100.00;100334.28;5054296;28;20053;-76
2023/01/16 03:16:14;;;;;;;52.92;32.67;;;;;;;5.69;100.00;100414.06;5052815;28;20545;-76
2023/01/16 03:18:57;;;;;;;46.13;31.52;;;;;;;5.60;100.00;100405.69;5054678;28;20033;-75
2023/01/16 03:22:13;;;;;;;48.13;32.88;;;;;;;5.24;100.00;100404.84;5053847;28;20155;-76
2023/01/16 03:25:10;;;;;;;44.85;30.50;;;;;;;5.50;100.00;100404.84;5041155;28;20044;-76
2023/01/16 03:27:51;;;;;;;45.95;31.45;;;;;;;5.26;100.00;100413.25;5052539;28;20509;-76
2023/01/16 03:30:44;;;;;;;43.33;30.67;;;;;;;5.36;100.00;100403.16;5054172;28;20078;-76
2023/01/16 03:33:42;;;;;;;45.63;31.08;;;;;;;4.67;100.00;100334.28;5051594;28;20064;-75
2023/01/16 03:36:14;;;;;;;44.83;29.92;;;;;;;5.23;100.00;100400.63;5053808;28;20040;-76
2023/01/16 03:38:44;;;;;;;42.97;29.75;;;;;;;4.94;100.00;100398.94;5053018;28;20029;-75
2023/01/16 03:41:13;;;;;;;41.67;29.52;;;;;;;4.74;100.00;100327.56;5052744;28;20064;-75
2023/01/16 03:43:39;;;;;;;46.10;30.55;;;;;;;5.05;100.00;100389.72;5052164;28;20025;-75
2023/01/16 03:46:26;;;;;;;46.40;30.35;;;;;;;4.47;100.00;100320.81;5052226;28;20039;-75
2023/01/16 03:48:54;;;;;;;41.92;29.55;;;;;;;5.12;100.00;100407.38;5053063;28;20033;-76
2023/01/16 03:51:30;;;;;;;42.95;29.83;;;;;;;5.28;100.00;100393.94;5052842;28;20155;-75
2023/01/16 03:54:05;;;;;;;49.42;31.35;;;;;;;4.91;100.00;100341.84;5052843;28;20106;-75
2023/01/16 03:56:43;;;;;;;53.22;34.13;;;;;;;4.26;100.00;100217.59;5053561;28;20025;-76
2023/01/16 03:59:09;;;;;;;78.13;45.53;;;;;;;4.60;100.00;100304.88;5052408;28;20021;-75
2023/01/16 04:01:56;;;;;;;99.60;56.22;;;;;;;5.23;100.00;100394.75;5052775;28;20025;-76
2023/01/16 04:04:32;;;;;;;90.32;53.88;;;;;;;4.69;100.00;100319.16;5053775;28;20240;-75
2023/01/16 04:07:07;;;;;;;84.97;51.25;;;;;;;5.12;100.00;100383.84;5052946;28;20099;-76
2023/01/16 04:09:36;;;;;;;82.75;50.17;;;;;;;5.34;100.00;100383.00;5052860;28;20495;-75
2023/01/16 04:12:03;;;;;;;75.93;48.92;;;;;;;5.41;100.00;100389.72;5052262;28;20025;-81
2023/01/16 04:14:31;;;;;;;112.72;64.85;;;;;;;5.33;100.00;100396.44;5058546;28;20048;-80
2023/01/16 04:16:58;;;;;;;94.72;56.00;;;;;;;5.06;100.00;100328.41;5070014;28;20036;-81
2023/01/16 04:19:26;;;;;;;79.30;50.50;;;;;;;5.28;100.00;100370.41;5058968;28;20411;-77
2023/01/16 04:21:52;;;;;;;64.93;42.45;;;;;;;5.07;100.00;100323.38;5053483;28;20721;-80
2023/01/16 04:24:18;;;;;;;64.80;42.20;;;;;;;5.36;100.00;100388.88;5053297;28;20033;-79
2023/01/16 04:26:44;;;;;;;69.45;41.90;;;;;;;4.47;100.00;100252.88;5040427;28;20037;-80
2023/01/16 04:29:09;;;;;;;61.83;39.72;;;;;;;5.23;100.00;100370.41;5052791;28;20037;-84
2023/01/16 04:31:35;;;;;;;51.78;35.80;;;;;;;5.20;100.00;100379.66;5050692;28;20033;-79
2023/01/16 04:34:00;;;;;;;48.70;33.85;;;;;;;5.38;100.00;100379.66;5053005;28;20035;-79
2023/01/16 04:36:26;;;;;;;54.20;36.35;;;;;;;5.34;100.00;100377.13;5051583;28;20067;-82
2023/01/16 04:38:51;;;;;;;128.45;59.88;;;;;;;5.42;100.00;100377.97;5052745;28;20055;-79
2023/01/16 04:41:35;;;;;;;92.70;48.33;;;;;;;5.31;100.00;100374.63;5051392;28;20514;-79
2023/01/16 04:44:02;;;;;;;56.45;36.53;;;;;;;5.52;100.00;100382.16;5052138;28;20033;-83
2023/01/16 04:46:28;;;;;;;42.00;28.55;;;;;;;5.51;100.00;100388.88;5052184;28;20418;-83
2023/01/16 04:48:54;;;;;;;39.78;27.83;;;;;;;5.44;100.00;100366.19;5047966;28;20033;-82
2023/01/16 04:51:19;;;;;;;43.20;31.05;;;;;;;4.71;100.00;100245.31;5033395;28;20591;-81
2023/01/16 04:53:45;;;;;;;42.42;28.75;;;;;;;5.09;100.00;100301.53;5032222;28;20033;-79
2023/01/16 04:56:10;;;;;;;47.17;31.38;;;;;;;5.41;100.00;100363.69;5030930;28;20129;-79
2023/01/16 04:58:36;;;;;;;50.15;33.83;;;;;;;5.06;100.00;100310.78;5031149;28;20124;-78
2023/01/16 05:01:02;;;;;;;50.58;33.72;;;;;;;5.29;100.00;100357.78;5032872;28;20116;-78
2023/01/16 05:03:27;;;;;;;68.82;46.17;;;;;;;4.92;100.00;100292.31;5047609;28;20419;-78
2023/01/16 05:05:53;;;;;;;65.03;44.45;;;;;;;4.87;100.00;100278.91;5051676;28;20070;-81
2023/01/16 05:08:19;;;;;;;64.07;45.20;;;;;;;4.64;100.00;100238.59;5052010;28;20087;-77
2023/01/16 05:10:45;;;;;;;71.95;49.15;;;;;;;4.97;100.00;100288.94;5042116;28;20033;-77
2023/01/16 05:13:11;;;;;;;71.85;51.42;;;;;;;5.40;100.00;100359.47;5032165;28;20034;-77
2023/01/16 05:15:36;;;;;;;74.00;53.00;;;;;;;4.98;100.00;100277.19;5031897;28;20087;-76
2023/01/16 05:18:02;;;;;;;70.30;52.63;;;;;;;5.25;100.00;100318.31;5030796;28;20025;-78
2023/01/16 05:20:29;;;;;;;78.07;53.10;;;;;;;4.78;100.00;100241.94;5031750;28;20127;-76
2023/01/16 05:22:54;;;;;;;66.60;45.92;;;;;;;5.39;100.00;100346.03;5030279;28;20083;-79
2023/01/16 05:25:19;;;;;;;61.88;42.58;;;;;;;4.96;100.00;100278.88;5031742;28;20419;-76
2023/01/16 05:27:49;;;;;;;55.28;39.53;;;;;;;5.46;100.00;100355.28;5031163;28;20052;-78
2023/01/16 05:30:15;;;;;;;52.45;37.88;;;;;;;5.34;100.00;100367.88;5031452;28;20042;-78
2023/01/16 05:32:43;;;;;;;55.88;40.13;;;;;;;5.27;100.00;100349.41;5047911;28;20040;-79
2023/01/16 05:35:09;;;;;;;68.30;49.75;;;;;;;5.21;100.00;100341.00;5051929;28;20464;-80
2023/01/16 05:37:34;;;;;;;67.70;48.38;;;;;;;5.34;100.00;100336.78;5050081;28;20036;-78
2023/01/16 05:40:00;;;;;;;59.75;41.58;;;;;;;5.41;100.00;100346.03;5050385;28;20059;-81
2023/01/16 05:42:26;;;;;;;56.28;36.47;;;;;;;4.83;100.00;100257.88;5039638;28;20072;-77
2023/01/16 05:44:52;;;;;;;40.53;27.48;;;;;;;6.85;100.00;100345.44;5042022;28;20211;-76
2023/01/16 05:47:20;;;;;;;47.67;32.30;;;;;;;7.02;100.00;100312.47;5050652;28;20478;-75
2023/01/16 05:49:46;;;;;;;65.97;44.70;;;;;;;5.31;100.00;100291.44;5052179;28;20029;-75
2023/01/16 05:52:12;;;;;;;56.47;41.60;;;;;;;5.14;100.00;100258.69;5052111;28;20029;-77
2023/01/16 05:54:37;;;;;;;53.22;36.38;;;;;;;4.99;100.00;100195.75;5067448;28;20035;-77
2023/01/16 05:57:03;;;;;;;46.95;33.85;;;;;;;5.54;100.00;100330.03;5029739;28;20498;-75
2023/01/16 05:59:28;;;;;;;48.33;32.50;;;;;;;5.52;100.00;100332.56;5031441;28;20061;-74
2023/01/16 06:01:53;;;;;;;64.80;43.50;;;;;;;5.28;100.00;100335.13;5050020;28;20658;-81
2023/01/16 06:04:20;;;;;;;55.00;37.17;;;;;;;4.97;100.00;100271.31;5048589;28;20044;-78
2023/01/16 06:06:45;;;;;;;87.63;60.05;;;;;;;5.26;100.00;100299.00;5050719;28;20033;-76
2023/01/16 06:09:11;;;;;;;75.97;54.70;;;;;;;5.54;100.00;100337.59;5049740;28;20443;-75
2023/01/16 06:11:37;;;;;;;97.30;61.25;;;;;;;5.07;100.00;100245.28;5051428;28;20163;-78
2023/01/16 06:14:04;;;;;;;101.80;61.67;;;;;;;5.61;100.00;100326.66;5051404;28;20384;-75
2023/01/16 06:16:30;;;;;;;153.52;82.55;;;;;;;5.57;100.00;100322.47;5051353;28;20029;-77
2023/01/16 06:18:56;;;;;;;75.47;46.55;;;;;;;5.61;100.00;100316.56;5050890;28;20039;-76
2023/01/16 06:21:21;;;;;;;72.43;43.33;;;;;;;5.73;100.00;100336.72;5044607;28;20283;-80
2023/01/16 06:23:46;;;;;;;62.42;40.72;;;;;;;5.55;100.00;100301.44;5033008;28;20028;-76
2023/01/16 06:26:12;;;;;;;80.07;48.13;;;;;;;5.89;100.00;100336.69;5051157;28;20121;-77
2023/01/16 06:28:38;;;;;;;71.60;44.92;;;;;;;5.47;100.00;100288.88;5049943;28;20767;-76
2023/01/16 06:31:04;;;;;;;74.93;45.42;;;;;;;5.79;100.00;100342.59;5051318;28;20055;-77
2023/01/16 06:33:30;;;;;;;63.63;42.40;;;;;;;5.87;100.00;100352.69;5049314;28;20041;-73
2023/01/16 06:35:55;;;;;;;67.22;41.70;;;;;;;5.94;100.00;100339.22;5053262;28;20033;-75
2023/01/16 06:38:24;;;;;;;62.83;40.63;;;;;;;5.48;100.00;100262.84;5053144;28;20025;-76
2023/01/16 06:40:50;;;;;;;66.22;42.28;;;;;;;6.07;100.00;100339.16;5055260;28;20032;-77
2023/01/16 06:43:16;;;;;;;83.30;50.20;;;;;;;6.11;100.00;100348.41;5054927;28;20025;-77
2023/01/16 06:45:44;;;;;;;70.50;48.97;;;;;;;6.05;100.00;100324.88;5053719;28;20033;-77
2023/01/16 06:48:09;;;;;;;75.63;52.15;;;;;;;6.07;100.00;100335.78;5054278;28;20037;-76
2023/01/16 06:50:35;;;;;;;94.38;66.03;;;;;;;5.59;100.00;100262.78;5053219;28;20033;-78
2023/01/16 06:53:00;;;;;;;86.72;56.15;;;;;;;5.66;100.00;100293.03;5037156;28;20041;-78
2023/01/16 06:55:26;;;;;;;81.28;55.63;;;;;;;5.50;100.00;100238.47;5033519;28;20128;-75
2023/01/16 06:57:51;;;;;;;79.30;54.55;;;;;;;5.21;100.00;100218.38;5047532;28;20128;-78
2023/01/16 07:00:17;;;;;;;89.28;60.95;;;;;;;5.32;100.00;100265.38;5049383;28;20051;-75
2023/01/16 07:02:42;;;;;;;64.35;44.78;;;;;;;5.26;100.00;100264.56;5053803;28;20107;-76
2023/01/16 07:05:09;;;;;;;58.63;41.65;;;;;;;5.54;100.00;100293.06;5035999;28;20090;-77
2023/01/16 07:07:35;;;;;;;61.95;42.60;;;;;;;5.80;100.00;100348.47;5033630;28;20242;-75
2023/01/16 07:10:02;;;;;;;54.45;39.85;;;;;;;6.15;100.00;100341.66;5033959;28;20029;-78
2023/01/16 07:12:28;;;;;;;54.28;37.80;;;;;;;5.57;100.00;100318.25;5033559;28;20131;-76
2023/01/16 07:23:18;;;;;;;47.95;32.42;;;;;;;4.83;100.00;100249.50;5034020;28;20044;-78
2023/01/16 07:25:44;;;;;;;48.10;31.90;;;;;;;5.13;100.00;100267.13;5032542;28;20037;-78
2023/01/16 07:28:09;;;;;;;45.85;31.45;;;;;;;5.58;100.00;100327.53;5024815;28;20042;-75
2023/01/16 07:30:35;;;;;;;45.65;31.75;;;;;;;5.25;100.00;100252.78;5033046;28;20510;-78
2023/01/16 07:33:00;;;;;;;44.03;30.42;;;;;;;5.08;100.00;100241.94;5033426;28;20412;-74
2023/01/16 07:35:25;;;;;;;49.80;32.60;;;;;;;5.65;100.00;100325.81;5032827;28;20474;-75
2023/01/16 07:37:56;;;;;;;48.50;31.20;;;;;;;5.63;100.00;100309.84;5031175;28;20033;-75
2023/01/16 07:40:21;;;;;;;49.60;33.45;;;;;;;5.05;100.00;100234.34;5027824;28;20048;-76
2023/01/16 07:42:50;;;;;;;49.75;33.13;;;;;;;5.20;100.00;100257.03;5030305;28;20104;-77
2023/01/16 07:45:15;;;;;;;46.90;32.03;;;;;;;5.15;100.00;100236.03;5031868;28;20026;-78
2023/01/16 07:47:40;;;;;;;50.80;34.22;;;;;;;5.86;100.00;100339.22;5032592;28;20068;-77
2023/01/16 07:50:06;;;;;;;52.47;35.53;;;;;;;5.76;100.00;100306.44;5032698;28;20127;-77
2023/01/16 07:52:32;;;;;;;52.50;35.38;;;;;;;5.94;100.00;100296.31;5038789;28;20060;-77
2023/01/16 07:54:57;;;;;;;58.60;35.75;;;;;;;5.93;100.00;100302.19;5031219;28;20492;-76
2023/01/16 07:57:25;;;;;;;57.45;38.50;;;;;;;6.16;100.00;100292.81;5031516;28;20021;-75
2023/01/16 07:59:50;;;;;;;57.55;38.42;;;;;;;5.56;100.00;100205.66;5032098;28;20044;-76
2023/01/16 08:02:15;;;;;;;58.42;38.97;;;;;;;6.19;100.00;100269.28;5032242;28;20679;-75
2023/01/16 08:04:41;;;;;;;56.33;38.33;;;;;;;6.11;100.00;100257.53;5047334;28;20492;-75
2023/01/16 08:07:06;;;;;;;59.17;38.65;;;;;;;5.84;100.00;100203.88;5045821;28;20095;-77
2023/01/16 08:09:32;;;;;;;77.20;51.35;;;;;;;6.11;100.00;100234.84;5045505;28;20020;-74
2023/01/16 08:11:57;;;;;;;69.75;49.28;;;;;;;6.16;100.00;100284.44;5049247;28;20202;-75
2023/01/16 08:14:22;;;;;;;65.70;45.05;;;;;;;6.30;100.00;100206.97;5078796;28;20025;-79
2023/01/16 08:16:48;;;;;;;64.70;46.25;;;;;;;6.25;100.00;100251.56;5052288;28;20021;-75
2023/01/16 08:19:13;;;;;;;64.32;42.35;;;;;;;6.48;100.00;100270.75;5051551;28;20522;-77
2023/01/16 08:21:39;;;;;;;46.90;33.03;;;;;;;6.47;100.00;100263.22;5052405;28;20029;-78
2023/01/16 08:24:05;;;;;;;52.85;36.20;;;;;;;6.40;100.00;100243.91;5052469;28;20316;-76
2023/01/16 08:26:31;;;;;;;53.03;36.47;;;;;;;5.86;100.00;100170.22;5051310;28;20059;-77
2023/01/16 08:28:57;;;;;;;50.88;35.70;;;;;;;6.80;100.00;100256.22;5050848;28;20037;-75
2023/01/16 08:31:23;;;;;;;54.20;36.83;;;;;;;6.18;100.00;100192.72;5051818;28;20407;-79
2023/01/16 08:33:49;;;;;;;42.10;30.38;;;;;;;6.26;100.00;100164.91;5050688;28;20032;-74
2023/01/16 08:36:20;;;;;;;44.15;28.70;;;;;;;6.04;100.00;100164.22;5048472;28;20090;-73
2023/01/16 08:38:45;;;;;;;52.25;37.53;;;;;;;6.71;100.00;100242.81;5040080;28;20028;-75
2023/01/16 08:52:08;;;;;;;41.60;28.05;;;;;;;7.38;100.00;100228.69;5049977;28;20117;-74
2023/01/16 08:54:34;;;;;;;42.95;28.17;;;;;;;7.11;100.00;100218.84;5031629;28;20057;-74
2023/01/16 08:56:59;;;;;;;50.95;37.08;;;;;;;6.44;100.00;100087.31;5031377;28;20052;-74
2023/01/16 08:59:25;;;;;;;39.25;26.05;;;;;;;7.10;100.00;100206.22;5031897;28;20136;-75
2023/01/16 09:01:50;;;;;;;34.47;22.38;;;;;;;6.77;100.00;100209.94;5031808;28;20120;-73
2023/01/16 09:04:15;;;;;;;33.25;22.48;;;;;;;6.92;100.00;100187.03;5051091;28;20059;-73
2023/01/16 09:06:41;;;;;;;31.75;22.40;;;;;;;7.29;100.00;100210.25;5050989;28;20037;-74
2023/01/16 09:09:07;;;;;;;28.88;21.10;;;;;;;6.24;100.00;100074.03;5049291;28;20037;-72
2023/01/16 09:14:17;;;;;;;41.45;28.40;;;;;;;6.99;100.00;100105.28;5051353;28;20102;-74
2023/01/16 09:16:43;;;;;;;35.63;23.85;;;;;;;6.84;100.00;100126.47;5049532;28;20037;-73
2023/01/16 09:19:08;;;;;;;31.17;22.08;;;;;;;7.24;100.00;100195.13;5051510;28;20171;-74
2023/01/16 09:21:33;;;;;;;49.83;30.05;;;;;;;7.36;100.00;100189.94;5051700;28;20036;-74
2023/01/16 09:23:59;;;;;;;30.25;20.95;;;;;;;7.15;100.00;100171.66;5051873;28;20116;-74
2023/01/16 09:26:24;;;;;;;29.33;20.90;;;;;;;6.82;100.00;100128.19;5049237;28;20055;-72
2023/01/16 09:28:50;;;;;;;30.75;20.67;;;;;;;7.18;100.00;100164.84;5032114;28;20030;-74
2023/01/16 09:31:18;;;;;;;34.78;25.67;;;;;;;7.22;100.00;100168.19;5047948;28;20036;-74
2023/01/16 09:33:44;;;;;;;35.33;26.73;;;;;;;6.70;100.00;100080.31;5051129;28;20029;-74
2023/01/16 09:36:11;;;;;;;40.95;27.67;;;;;;;7.10;100.00;100153.16;5060084;28;20037;-74
2023/01/16 09:38:36;;;;;;;39.25;26.88;;;;;;;7.15;100.00;100164.88;5049508;28;20045;-75
2023/01/16 09:41:02;;;;;;;41.13;29.85;;;;;;;7.03;100.00;100170.91;5045510;28;20487;-74
2023/01/16 09:43:41;;;;;;;36.58;26.45;;;;;;;6.64;100.00;100093.00;5041912;28;20044;-75
2023/01/16 09:46:15;;;;;;;39.67;27.63;;;;;;;7.12;100.00;100159.03;5059179;28;20028;-76
2023/01/16 09:48:40;;;;;;;33.20;23.40;;;;;;;7.00;100.00;100160.84;5058182;28;20075;-76
2023/01/16 09:51:13;;;;;;;36.08;25.50;;;;;;;7.09;100.00;100154.03;5051487;28;20022;-74
2023/01/16 09:59:45;;;;;;;37.80;27.30;;;;;;;7.10;100.00;100122.81;5041823;28;20037;-73
2023/01/16 10:02:20;;;;;;;40.28;27.92;;;;;;;7.35;100.00;100144.44;5051203;28;20033;-76
2023/01/16 10:04:47;;;;;;;42.70;29.63;;;;;;;7.31;100.00;100120.88;5040481;28;20057;-72
2023/01/16 10:07:16;;;;;;;37.60;27.90;;;;;;;7.19;100.00;100135.38;5043123;28;20501;-73
2023/01/16 10:09:59;;;;;;;34.03;25.50;;;;;;;7.25;100.00;100118.41;5043093;28;20084;-73
2023/01/16 10:12:33;;;;;;;37.67;22.85;;;;;;;6.83;100.00;100033.03;5053273;28;20048;-79
2023/01/16 10:15:46;;;;;;;35.13;24.75;;;;;;;7.50;100.00;100108.84;5052683;28;20101;-75
2023/01/16 10:18:35;;;;;;;36.70;25.38;;;;;;;6.87;100.00;100022.03;5042221;28;20021;-75
2023/01/16 10:21:18;;;;;;;36.33;24.23;;;;;;;7.53;100.00;100104.56;5053052;28;20062;-77
2023/01/16 10:24:16;;;;;;;36.40;25.95;;;;;;;7.38;100.00;100079.50;5055636;28;20055;-75
2023/01/16 10:26:59;;;;;;;28.60;21.38;;;;;;;7.45;100.00;100072.63;5047476;28;20072;-75
2023/01/16 10:29:33;;;;;;;34.00;25.40;;;;;;;7.42;100.00;100067.63;5047129;28;20434;-74
2023/01/16 10:32:02;;;;;;;32.78;22.38;;;;;;;7.54;100.00;100072.53;5040170;28;20026;-75
2023/01/16 10:34:35;;;;;;;28.90;22.08;;;;;;;7.54;100.00;100075.06;5042197;28;20171;-74
2023/01/16 10:37:01;;;;;;;29.10;22.33;;;;;;;7.72;100.00;100062.13;5032859;28;20041;-75
2023/01/16 10:39:32;;;;;;;30.23;22.92;;;;;;;7.72;100.00;100062.97;5036617;28;20037;-73
2023/01/16 10:50:46;;;;;;;28.87;21.92;;;;;;;7.44;100.00;100026.31;5050152;28;10000898;-79
2023/01/16 10:53:12;;;;;;;23.63;18.70;;;;;;;7.69;100.00;100030.13;5032378;28;20269;-77
2023/01/16 10:55:48;;;;;;;23.67;17.95;;;;;;;7.65;100.00;100009.94;5034967;28;20056;-77
2023/01/16 10:58:31;;;;;;;27.35;19.40;;;;;;;7.43;100.00;100001.84;5043142;28;20034;-75
2023/01/16 11:01:04;;;;;;;26.55;18.83;;;;;;;7.71;100.00;100010.69;5033229;28;20041;-74
2023/01/16 11:03:51;;;;;;;28.95;20.70;;;;;;;7.33;100.00;99954.81;5038437;28;20057;-72
2023/01/16 11:06:20;;;;;;;22.02;17.25;;;;;;;7.66;100.00;100016.69;5049873;28;20033;-75
2023/01/16 11:08:49;;;;;;;24.70;18.15;;;;;;;7.21;100.00;99995.44;5049760;28;20037;-75
2023/01/16 11:19:43;;;;;;;26.27;19.20;;;;;;;7.62;100.00;99994.81;5051343;28;20043;-78
2023/01/16 11:22:25;;;;;;;28.55;21.77;;;;;;;7.55;100.00;99952.78;5050467;28;20530;-77
2023/01/16 11:24:56;;;;;;;32.35;23.92;;;;;;;7.72;100.00;99960.94;5050113;28;20048;-75
2023/01/16 11:27:24;;;;;;;31.98;23.65;;;;;;;7.72;100.00;99966.84;5051221;28;20032;-75
2023/01/16 11:29:54;;;;;;;31.10;22.95;;;;;;;7.67;100.00;99982.94;5050730;28;20089;-76
2023/01/16 11:32:24;;;;;;;30.67;22.38;;;;;;;7.68;100.00;99974.50;5047947;28;20025;-74
2023/01/16 11:34:54;;;;;;;35.80;23.70;;;;;;;7.65;100.00;99955.13;5038245;28;20033;-74
2023/01/16 11:37:22;;;;;;;32.33;23.92;;;;;;;7.77;100.00;99975.16;5031918;28;20108;-77
2023/01/16 11:39:52;;;;;;;34.28;24.95;;;;;;;7.73;100.00;99963.44;5052227;28;20487;-73
2023/01/16 11:48:23;;;;;;;45.00;33.75;;;;;;;7.67;100.00;99958.47;5050819;28;20044;-74
2023/01/16 11:50:55;;;;;;;28.02;20.85;;;;;;;7.15;100.00;99914.63;5049226;28;20476;-74
2023/01/16 11:53:21;;;;;;;28.33;20.77;;;;;;;7.66;100.00;99951.75;5051494;28;20479;-72
2023/01/16 11:56:04;;;;;;;27.98;20.48;;;;;;;7.62;100.00;99950.13;5051918;28;20032;-73
2023/01/16 11:58:45;;;;;;;41.88;25.65;;;;;;;7.96;100.00;99851.69;5053155;28;20033;-74
2023/01/16 12:01:24;;;;;;;29.85;21.23;;;;;;;7.76;100.00;99937.25;5048216;28;20098;-72
2023/01/16 12:04:01;;;;;;;28.95;20.50;;;;;;;7.60;100.00;99930.78;5032499;28;20053;-75
2023/01/16 12:06:43;;;;;;;27.05;19.65;;;;;;;7.64;100.00;99933.25;5032575;28;20030;-73
2023/01/16 12:09:25;;;;;;;31.10;22.10;;;;;;;7.72;100.00;99931.41;5032960;28;20040;-74
2023/01/16 12:15:02;;;;;;;30.83;22.52;;;;;;;7.80;100.00;99889.06;5032961;28;20036;-75
2023/01/16 12:17:34;;;;;;;36.28;23.80;;;;;;;8.15;100.00;99921.34;5032547;28;20034;-75
2023/01/16 12:20:18;;;;;;;;;;;;;;;7.78;100.00;99921.16;5032208;28;20029;-72
2023/01/16 12:23:01;;;;;;;27.50;20.25;;;;;;;8.30;100.00;99908.38;5032229;28;19909;-75
2023/01/16 12:25:52;;;;;;;28.70;19.85;;;;;;;7.62;100.00;99802.59;5033276;28;20037;-76
2023/01/16 12:28:46;;;;;;;22.85;17.10;;;;;;;7.95;100.00;99905.69;5033400;28;20048;-77